首页
METAR-TAF:

METAR-TAF

机场 :

Sedona, 亞利桑那州, 美国

纬度: 34-51N, 经度: 111-47W, 海拔: 1471米

当前天气观测

该预报发布于9分钟前的00:35 UTC
静风
温度 11°C
湿度 66%
气压 1022 hPa
能見度: 16.1公里
阴天层高于4600英尺

METAR: KSEZ 080035Z AUTO 00000KT 10SM OVC046 11/05 A3017 RMK AO2

时间: 17:44 (00:44 UTC)

预报

该预报发布于1小时和18分钟前的23:26 UTC
预报有效从08日的 00点(UTC)到 08日的 24点(UTC)
风速6节,风向多变
能見度: 10公里
多云层高于5000英尺
阴天层高于7000英尺
附近有阵雨
短暂存在
从 08日的 01点(UTC)到 08日的 05点(UTC)
能見度: 9.7公里
阴天层高于5000英尺
小阵雨
从 08日的 0500点(UTC)
风速7节,风向
能見度: 6.4公里
散云层高于1500英尺
阴天层高于2500英尺
小雨

TAF: KSEZ 072326Z 0800/0824 VRB06KT P6SM VCSH BKN050 OVC070 TEMPO 0801/0805 6SM -SHRA OVC050 FM080500 18007KT 4SM -RA SCT015 OVC025

超过4000个机场的气象观测和天气预报(METAR&TAF报告)。

可查询的气象台以黄色和红色小点在地图上表示。

将鼠标移到小点上方,可查看气象台名称。

然后点击查看天气观测和预报。

如需切换地图:点击带黑十字的绿色按钮放大地图;点击带横线的绿色按钮缩小地图;或者点击绿色箭头查看邻近地区的地图。


METAR-TAF: